Time;durP1;ratioP1;P1;durP2;ratioP2;P2;SDS_P1;SDS_P2;PMS_P1;PMS_P2;Temp;Humidity;BMP_temperature;BMP_pressure;BME280_temperature;BME280_humidity;BME280_pressure;Samples;Min_cycle;Max_cycle;Signal;HPM_P1;HPM_P2
2022/07/13 00:01:35;;;;;;;;;;;20.10;99.90;;;;;;4934367;28;20590;-75
2022/07/13 00:04:00;;;;;;;0.10;0.10;;;20.10;99.90;;;;;;4923787;29;19927;-75
2022/07/13 00:06:26;;;;;;;;;;;20.10;99.90;;;;;;4916339;28;20059;-75
2022/07/13 00:08:52;;;;;;;0.45;0.20;;;20.10;99.90;;;;;;4928305;29;20001;-75
2022/07/13 00:11:17;;;;;;;0.13;0.13;;;20.10;99.90;;;;;;4934336;29;20075;-75
2022/07/13 00:13:43;;;;;;;;;;;20.00;99.90;;;;;;4932560;29;20047;-75
2022/07/13 00:16:08;;;;;;;0.20;0.20;;;20.10;99.90;;;;;;4933182;29;20039;-71
2022/07/13 00:18:34;;;;;;;0.13;0.13;;;20.10;99.90;;;;;;4931503;29;20070;-72
2022/07/13 00:20:59;;;;;;;;;;;20.10;99.90;;;;;;4935605;29;20525;-71
2022/07/13 00:23:25;;;;;;;0.10;0.10;;;20.00;99.90;;;;;;4933421;29;19930;-74
2022/07/13 00:25:51;;;;;;;0.25;0.17;;;20.00;99.90;;;;;;4930909;29;20045;-74
2022/07/13 00:28:16;;;;;;;0.10;0.10;;;20.00;99.90;;;;;;4948600;29;20054;-74
2022/07/13 00:30:42;;;;;;;;;;;20.00;99.90;;;;;;4930333;29;20138;-75
2022/07/13 00:33:08;;;;;;;0.10;0.10;;;20.00;99.90;;;;;;4932414;29;20374;-75
2022/07/13 00:35:34;;;;;;;0.10;0.10;;;20.00;99.90;;;;;;4928469;28;20070;-75
2022/07/13 00:38:00;;;;;;;0.10;0.10;;;20.00;99.90;;;;;;4946577;28;20142;-75
2022/07/13 00:40:26;;;;;;;0.10;0.10;;;20.00;99.90;;;;;;4933068;28;20094;-75
2022/07/13 00:42:52;;;;;;;;;;;19.90;99.90;;;;;;4934239;28;20430;-75
2022/07/13 00:45:18;;;;;;;0.00;0.00;;;19.90;99.90;;;;;;4929500;29;19946;-75
2022/07/13 00:47:46;;;;;;;0.20;0.20;;;20.00;99.90;;;;;;4932767;29;20038;-75
2022/07/13 00:50:12;;;;;;;0.00;0.00;;;20.00;99.90;;;;;;4932560;29;20036;-75
2022/07/13 00:52:38;;;;;;;;;;;20.00;99.90;;;;;;4930950;29;20043;-75
2022/07/13 00:55:06;;;;;;;0.20;0.10;;;20.00;99.90;;;;;;4930437;29;19929;-75
2022/07/13 00:57:36;;;;;;;0.00;0.00;;;19.90;99.90;;;;;;4929811;29;20122;-75
2022/07/13 01:00:11;;;;;;;0.00;0.00;;;19.90;99.90;;;;;;4931404;29;20794;-75
2022/07/13 01:02:38;;;;;;;0.10;0.10;;;19.90;99.90;;;;;;4947167;28;20059;-75
2022/07/13 01:05:05;;;;;;;0.20;0.20;;;20.00;99.90;;;;;;4931118;28;20035;-75
2022/07/13 01:07:34;;;;;;;0.17;0.15;;;20.00;99.90;;;;;;4933298;29;20102;-75
2022/07/13 01:10:05;;;;;;;0.20;0.20;;;19.90;99.90;;;;;;4927657;29;20047;-75
2022/07/13 01:12:31;;;;;;;0.30;0.30;;;20.00;99.90;;;;;;4931634;28;20747;-71
2022/07/13 01:14:57;;;;;;;0.10;0.10;;;20.00;99.90;;;;;;4930374;29;20043;-71
2022/07/13 01:17:24;;;;;;;0.10;0.10;;;20.00;99.90;;;;;;4930001;29;20047;-74
2022/07/13 01:19:50;;;;;;;0.38;0.20;;;20.00;99.90;;;;;;4947152;28;20043;-75
2022/07/13 01:22:21;;;;;;;0.15;0.10;;;20.00;99.90;;;;;;4932960;28;20081;-76
2022/07/13 01:24:49;;;;;;;0.13;0.10;;;19.90;99.90;;;;;;4945461;28;20411;-75
2022/07/13 01:27:16;;;;;;;0.15;0.15;;;20.00;99.90;;;;;;4930843;29;20110;-75
2022/07/13 01:29:42;;;;;;;0.10;0.10;;;19.90;99.90;;;;;;4929121;29;20074;-75
2022/07/13 01:32:08;;;;;;;;;;;20.00;99.90;;;;;;4925423;29;20141;-75
2022/07/13 01:34:33;;;;;;;0.10;0.10;;;20.00;99.90;;;;;;4931839;29;20259;-75
2022/07/13 01:37:00;;;;;;;;;;;19.90;99.90;;;;;;4933237;29;20060;-75
2022/07/13 01:39:25;;;;;;;0.10;0.10;;;20.00;99.90;;;;;;4932031;28;19926;-75
2022/07/13 01:41:51;;;;;;;;;;;20.00;99.90;;;;;;4929974;28;20483;-75
2022/07/13 01:44:17;;;;;;;0.13;0.13;;;19.90;99.90;;;;;;4928936;29;20361;-71
2022/07/13 01:46:43;;;;;;;0.30;0.30;;;20.00;99.90;;;;;;4944154;28;20436;-71
2022/07/13 01:49:08;;;;;;;;;;;20.00;99.90;;;;;;4929298;28;20050;-71
2022/07/13 01:51:34;;;;;;;0.10;0.10;;;20.00;99.90;;;;;;4930977;29;19919;-72
2022/07/13 01:54:00;;;;;;;;;;;20.00;99.90;;;;;;4929099;29;21879;-71
2022/07/13 01:56:26;;;;;;;0.30;0.30;;;19.90;99.90;;;;;;4928911;28;19922;-71
2022/07/13 01:58:52;;;;;;;0.30;0.30;;;19.90;99.90;;;;;;4928150;29;20494;-72
2022/07/13 02:01:17;;;;;;;;;;;20.00;99.90;;;;;;4927676;28;20062;-71
2022/07/13 02:03:43;;;;;;;0.75;0.40;;;19.90;99.90;;;;;;4929681;28;19925;-71
2022/07/13 02:06:09;;;;;;;;;;;19.90;99.90;;;;;;4912751;29;20079;-71
2022/07/13 02:08:35;;;;;;;0.38;0.38;;;20.00;99.90;;;;;;4930516;28;20423;-71
2022/07/13 02:11:00;;;;;;;;;;;20.00;99.90;;;;;;4930436;29;20047;-71
2022/07/13 02:13:26;;;;;;;0.30;0.30;;;19.90;99.90;;;;;;4930714;28;19958;-71
2022/07/13 02:15:51;;;;;;;;;;;19.90;99.90;;;;;;4928868;29;20495;-71
2022/07/13 02:18:17;;;;;;;0.20;0.20;;;19.90;99.90;;;;;;4940941;28;21102;-71
2022/07/13 02:20:43;;;;;;;0.25;0.25;;;19.90;99.90;;;;;;4927748;29;20039;-71
2022/07/13 02:23:09;;;;;;;;;;;19.90;99.90;;;;;;4929126;29;20407;-72
2022/07/13 02:25:37;;;;;;;0.30;0.30;;;19.90;99.90;;;;;;4943196;28;19922;-71
2022/07/13 02:28:04;;;;;;;0.45;0.20;;;19.90;99.90;;;;;;4942419;28;20057;-71
2022/07/13 02:30:30;;;;;;;0.30;0.28;;;19.90;99.90;;;;;;4935835;28;20796;-71
2022/07/13 02:32:56;;;;;;;;;;;19.80;99.90;;;;;;4929085;29;20042;-71
2022/07/13 02:35:21;;;;;;;0.25;0.25;;;19.80;99.90;;;;;;4928720;28;20381;-71
2022/07/13 02:37:47;;;;;;;;;;;19.80;99.90;;;;;;4928517;29;20048;-71
2022/07/13 02:40:12;;;;;;;0.80;0.80;;;19.80;99.90;;;;;;4941324;28;19926;-71
2022/07/13 02:42:38;;;;;;;;;;;19.80;99.90;;;;;;4927923;29;20047;-71
2022/07/13 02:45:05;;;;;;;0.50;0.50;;;19.80;99.90;;;;;;4927477;29;20429;-72
2022/07/13 02:47:31;;;;;;;0.77;0.77;;;19.90;99.90;;;;;;4928691;29;20054;-72
2022/07/13 02:49:57;;;;;;;;;;;19.80;99.90;;;;;;4936446;29;20031;-72
2022/07/13 02:52:22;;;;;;;0.55;0.55;;;19.80;99.90;;;;;;4928322;28;20477;-71
2022/07/13 02:54:48;;;;;;;;;;;19.90;99.90;;;;;;4927104;28;20050;-71
2022/07/13 02:57:14;;;;;;;0.50;0.50;;;19.90;99.90;;;;;;4929728;29;19926;-71
2022/07/13 02:59:39;;;;;;;;;;;19.90;99.90;;;;;;4929611;29;20044;-72
2022/07/13 03:02:06;;;;;;;0.90;0.90;;;19.90;99.90;;;;;;4944228;28;20396;-71
2022/07/13 03:04:33;;;;;;;0.82;0.75;;;19.90;99.90;;;;;;4929334;28;20043;-72
2022/07/13 03:06:59;;;;;;;0.57;0.57;;;19.90;99.90;;;;;;4934550;29;20043;-71
2022/07/13 03:09:24;;;;;;;;;;;19.90;99.90;;;;;;4932221;28;20440;-71
2022/07/13 03:11:50;;;;;;;0.68;0.68;;;20.00;99.90;;;;;;4932726;29;19933;-72
2022/07/13 03:14:16;;;;;;;;;;;19.90;99.90;;;;;;4943668;28;20054;-71
2022/07/13 03:16:42;;;;;;;0.50;0.50;;;20.00;99.90;;;;;;4930811;29;19922;-72
2022/07/13 03:19:09;;;;;;;0.40;0.40;;;19.90;99.90;;;;;;4931791;29;20032;-71
2022/07/13 03:21:35;;;;;;;0.50;0.50;;;19.90;99.90;;;;;;4936782;28;20435;-71
2022/07/13 03:24:01;;;;;;;0.60;0.60;;;19.90;99.90;;;;;;4932320;29;20075;-71
2022/07/13 03:26:27;;;;;;;;;;;19.90;99.90;;;;;;4933698;29;20434;-71
2022/07/13 03:28:52;;;;;;;0.50;0.50;;;19.90;99.90;;;;;;4931815;29;19922;-72
2022/07/13 03:31:18;;;;;;;;;;;19.90;99.90;;;;;;4918451;29;20073;-71
2022/07/13 03:33:44;;;;;;;0.52;0.50;;;19.90;99.90;;;;;;4934047;28;19972;-71
2022/07/13 03:36:10;;;;;;;0.40;0.40;;;19.80;99.90;;;;;;4915702;29;20395;-71
2022/07/13 03:38:36;;;;;;;;;;;19.90;99.90;;;;;;4933454;28;20043;-71
2022/07/13 03:41:01;;;;;;;0.43;0.43;;;19.70;99.90;;;;;;4915864;29;19923;-71
2022/07/13 03:43:27;;;;;;;;;;;19.80;99.90;;;;;;4930161;29;20047;-72
2022/07/13 03:45:53;;;;;;;0.40;0.40;;;19.80;99.90;;;;;;4948618;29;20278;-72
2022/07/13 03:48:18;;;;;;;;;;;19.80;99.90;;;;;;4916878;29;20055;-72
2022/07/13 03:50:45;;;;;;;0.30;0.30;;;19.80;99.90;;;;;;4949249;28;19966;-72
2022/07/13 03:53:11;;;;;;;0.60;0.60;;;19.70;99.90;;;;;;4933613;29;20047;-71
2022/07/13 03:55:38;;;;;;;0.43;0.43;;;19.90;99.90;;;;;;4931983;29;20051;-71
2022/07/13 03:58:04;;;;;;;0.40;0.40;;;19.80;99.90;;;;;;4940083;29;20483;-71
2022/07/13 04:00:31;;;;;;;0.47;0.47;;;19.80;99.90;;;;;;4931227;29;20102;-72
2022/07/13 04:02:57;;;;;;;0.70;0.60;;;19.80;99.90;;;;;;4932068;29;20051;-72
2022/07/13 04:05:23;;;;;;;0.70;0.70;;;19.70;99.90;;;;;;4931577;29;20046;-71
2022/07/13 04:07:49;;;;;;;0.50;0.50;;;19.70;99.90;;;;;;4929630;29;20372;-71
2022/07/13 04:10:14;;;;;;;;;;;19.80;99.90;;;;;;4914345;28;21394;-71
2022/07/13 04:12:43;;;;;;;0.70;0.68;;;19.80;99.90;;;;;;4931139;29;19969;-71
2022/07/13 04:15:10;;;;;;;0.77;0.75;;;19.90;99.90;;;;;;4927930;29;20487;-72
2022/07/13 04:17:35;;;;;;;0.70;0.70;;;19.80;99.90;;;;;;4928241;29;20043;-71
2022/07/13 04:20:01;;;;;;;;;;;19.90;99.90;;;;;;4915019;28;20066;-71
2022/07/13 04:22:26;;;;;;;0.80;0.80;;;19.80;99.90;;;;;;4946369;28;19922;-71
2022/07/13 04:24:52;;;;;;;;;;;19.80;99.90;;;;;;4949718;28;20486;-71
2022/07/13 04:27:18;;;;;;;1.00;0.90;;;19.90;99.90;;;;;;4933218;29;19918;-71
2022/07/13 04:29:43;;;;;;;;;;;19.90;99.90;;;;;;4930710;28;20483;-72
2022/07/13 04:32:09;;;;;;;0.50;0.50;;;19.90;99.90;;;;;;4943768;28;19918;-72
2022/07/13 04:34:35;;;;;;;0.60;0.60;;;20.00;99.90;;;;;;4952907;29;20049;-71
2022/07/13 04:37:00;;;;;;;;;;;20.00;99.90;;;;;;4933198;29;20130;-71
2022/07/13 04:39:26;;;;;;;0.50;0.50;;;19.90;99.90;;;;;;4927156;29;19930;-71
2022/07/13 04:41:51;;;;;;;0.50;0.50;;;19.90;99.90;;;;;;4934761;28;20043;-71
2022/07/13 04:44:17;;;;;;;;;;;20.00;99.90;;;;;;4933865;29;20036;-71
2022/07/13 04:46:42;;;;;;;0.98;0.88;;;19.90;99.90;;;;;;4916989;29;19919;-71
2022/07/13 04:49:08;;;;;;;;;;;20.00;99.90;;;;;;4935304;29;20043;-71
2022/07/13 04:51:37;;;;;;;0.80;0.80;;;20.00;99.90;;;;;;4936633;29;20009;-71
2022/07/13 04:54:03;;;;;;;1.10;1.00;;;20.00;99.90;;;;;;4933846;29;20434;-71
2022/07/13 04:56:28;;;;;;;;;;;20.00;99.90;;;;;;4931938;28;20055;-71
2022/07/13 04:58:54;;;;;;;1.30;1.20;;;20.10;99.90;;;;;;4931186;29;19925;-71
2022/07/13 05:01:20;;;;;;;0.88;0.88;;;20.10;99.90;;;;;;4935111;28;20065;-71
2022/07/13 05:03:45;;;;;;;;;;;20.20;99.90;;;;;;4935125;28;20055;-71
2022/07/13 05:06:13;;;;;;;1.13;0.73;;;20.10;99.90;;;;;;4942219;29;20345;-72
2022/07/13 05:08:39;;;;;;;0.90;0.88;;;20.00;99.90;;;;;;4927805;29;20062;-71
2022/07/13 05:11:07;;;;;;;1.00;0.90;;;20.00;99.90;;;;;;4916316;28;20055;-72
2022/07/13 05:13:33;;;;;;;0.85;0.73;;;20.00;99.90;;;;;;4931377;29;20047;-72
2022/07/13 05:15:59;;;;;;;0.93;0.73;;;20.10;99.90;;;;;;4934355;29;20115;-72
2022/07/13 05:18:25;;;;;;;;;;;20.10;99.90;;;;;;4933927;29;20479;-72
2022/07/13 05:20:50;;;;;;;0.82;0.70;;;20.10;99.90;;;;;;4934277;29;19934;-72
2022/07/13 05:23:16;;;;;;;0.70;0.70;;;20.00;99.90;;;;;;4933148;29;20471;-72
2022/07/13 05:25:42;;;;;;;;;;;20.10;99.90;;;;;;4944392;28;20631;-72
2022/07/13 05:28:07;;;;;;;1.52;1.40;;;20.10;99.90;;;;;;4928789;29;20266;-72
2022/07/13 05:30:33;;;;;;;;;;;20.00;99.90;;;;;;4934553;29;20039;-72
2022/07/13 05:32:58;;;;;;;1.88;1.65;;;20.00;99.90;;;;;;4932106;29;19918;-72
2022/07/13 05:35:24;;;;;;;1.27;1.17;;;20.10;99.90;;;;;;4950296;29;20035;-72
2022/07/13 05:37:50;;;;;;;;;;;20.00;99.90;;;;;;4946444;28;20470;-72
2022/07/13 05:40:16;;;;;;;1.40;1.30;;;20.10;99.90;;;;;;4930092;29;19922;-71
2022/07/13 05:42:42;;;;;;;1.20;1.10;;;20.10;99.90;;;;;;4933320;29;20097;-71
2022/07/13 05:45:08;;;;;;;;;;;20.10;99.90;;;;;;4934828;29;20054;-71
2022/07/13 05:47:33;;;;;;;1.33;1.10;;;20.10;99.90;;;;;;4936139;29;19918;-71
2022/07/13 05:49:59;;;;;;;;;;;20.10;99.90;;;;;;4929109;29;20774;-71
2022/07/13 05:52:24;;;;;;;1.85;1.70;;;20.20;99.90;;;;;;4928085;29;20400;-71
2022/07/13 05:54:50;;;;;;;;;;;20.20;99.90;;;;;;4942459;28;20048;-71
2022/07/13 05:57:16;;;;;;;2.63;2.30;;;20.20;99.90;;;;;;4928237;29;20036;-71
2022/07/13 05:59:42;;;;;;;2.50;2.30;;;20.20;99.90;;;;;;4928070;29;20046;-71
2022/07/13 06:02:07;;;;;;;;;;;20.20;99.90;;;;;;4927839;29;20066;-71
2022/07/13 06:04:33;;;;;;;3.78;3.38;;;20.20;99.90;;;;;;4930071;28;19922;-71
2022/07/13 06:06:59;;;;;;;;;;;20.20;99.90;;;;;;4939460;28;20394;-71
2022/07/13 06:09:24;;;;;;;2.55;2.20;;;20.30;99.90;;;;;;4928060;28;20414;-71
2022/07/13 06:11:50;;;;;;;;;;;20.20;99.90;;;;;;4930836;29;20046;-72
2022/07/13 06:14:16;;;;;;;2.60;2.40;;;20.30;99.90;;;;;;4940397;28;20452;-71
2022/07/13 06:16:41;;;;;;;;;;;20.20;99.90;;;;;;4928346;29;20135;-71
2022/07/13 06:19:08;;;;;;;1.80;1.70;;;20.40;99.90;;;;;;4946185;28;19932;-71
2022/07/13 06:21:33;;;;;;;2.47;2.28;;;20.30;99.90;;;;;;4931604;28;20038;-71
2022/07/13 06:23:59;;;;;;;1.67;1.58;;;20.40;99.90;;;;;;4928882;28;20042;-71
2022/07/13 06:26:25;;;;;;;1.70;1.60;;;20.50;99.90;;;;;;4929332;29;20043;-71
2022/07/13 06:28:50;;;;;;;;;;;20.60;99.90;;;;;;4940600;28;20557;-71
2022/07/13 06:31:16;;;;;;;2.53;2.33;;;20.60;99.90;;;;;;4912627;29;19922;-71
2022/07/13 06:33:41;;;;;;;;;;;20.70;99.90;;;;;;4930526;29;20043;-71
2022/07/13 06:36:08;;;;;;;3.08;2.70;;;20.70;99.90;;;;;;4928230;29;20274;-71
2022/07/13 06:38:34;;;;;;;7.20;4.88;;;20.70;99.90;;;;;;4936350;28;20048;-71
2022/07/13 06:41:00;;;;;;;4.72;3.90;;;20.90;99.90;;;;;;4914385;29;20047;-71
2022/07/13 06:43:25;;;;;;;4.82;3.88;;;20.90;99.90;;;;;;4930393;29;20402;-71
2022/07/13 06:45:51;;;;;;;5.32;4.20;;;20.80;99.90;;;;;;4928800;28;20487;-71
2022/07/13 06:48:17;;;;;;;4.82;3.80;;;20.90;99.90;;;;;;4924997;28;20426;-72
2022/07/13 06:50:43;;;;;;;;;;;20.90;99.90;;;;;;4943646;28;20050;-71
2022/07/13 06:53:08;;;;;;;4.97;4.18;;;20.90;99.90;;;;;;4937819;28;20403;-71
2022/07/13 06:55:34;;;;;;;6.38;5.30;;;21.00;99.90;;;;;;4926422;28;20046;-71
2022/07/13 06:58:00;;;;;;;;;;;21.00;99.90;;;;;;4927259;29;20495;-71
2022/07/13 07:00:26;;;;;;;4.38;3.40;;;21.30;99.90;;;;;;4944473;28;20350;-71
2022/07/13 07:02:52;;;;;;;6.68;5.43;;;21.30;99.90;;;;;;4957395;28;20416;-71
2022/07/13 07:05:17;;;;;;;6.63;3.63;;;21.20;99.90;;;;;;4933441;29;20509;-71
2022/07/13 07:07:43;;;;;;;5.53;3.72;;;21.40;99.90;;;;;;4935328;28;20055;-71
2022/07/13 07:10:10;;;;;;;5.05;4.35;;;21.50;99.90;;;;;;4952523;28;20074;-71
2022/07/13 07:12:37;;;;;;;5.57;4.32;;;21.50;99.90;;;;;;4932811;29;20055;-71
2022/07/13 07:15:03;;;;;;;5.65;3.63;;;21.40;99.90;;;;;;4942431;28;20038;-71
2022/07/13 07:17:29;;;;;;;3.88;3.15;;;21.60;99.90;;;;;;4911492;29;20039;-71
2022/07/13 07:20:04;;;;;;;5.18;3.47;;;21.70;99.90;;;;;;4948881;28;20509;-71
2022/07/13 07:22:29;;;;;;;5.55;4.07;;;21.80;99.90;;;;;;4941353;28;20478;-71
2022/07/13 07:24:56;;;;;;;3.72;2.88;;;21.80;99.90;;;;;;4927083;28;20034;-71
2022/07/13 07:27:22;;;;;;;4.68;3.58;;;21.90;99.90;;;;;;4946102;29;20051;-72
2022/07/13 07:29:48;;;;;;;4.10;3.20;;;21.90;99.90;;;;;;4953685;28;20388;-71
2022/07/13 07:32:14;;;;;;;2.83;2.17;;;21.90;99.90;;;;;;4943330;28;20041;-71
2022/07/13 07:34:39;;;;;;;3.00;2.20;;;22.10;99.90;;;;;;4933075;29;20383;-71
2022/07/13 07:37:05;;;;;;;2.95;2.50;;;22.20;99.90;;;;;;4938351;29;20050;-71
2022/07/13 07:39:31;;;;;;;5.18;3.00;;;22.20;99.90;;;;;;4929837;29;20047;-72
2022/07/13 07:41:57;;;;;;;4.68;3.65;;;22.20;99.90;;;;;;4926774;28;20058;-71
2022/07/13 07:44:22;;;;;;;4.53;3.78;;;22.30;99.90;;;;;;4940689;28;20122;-71
2022/07/13 07:46:48;;;;;;;6.80;4.63;;;22.40;99.90;;;;;;4949664;28;20047;-71
2022/07/13 07:49:15;;;;;;;3.47;3.17;;;22.50;99.90;;;;;;4934569;28;20062;-71
2022/07/13 07:51:41;;;;;;;5.40;4.10;;;22.50;99.90;;;;;;4955977;28;20129;-71
2022/07/13 07:54:06;;;;;;;4.38;3.30;;;22.60;99.90;;;;;;4956655;28;20125;-71
2022/07/13 07:56:32;;;;;;;8.45;5.90;;;22.70;99.90;;;;;;4941801;28;20046;-71
2022/07/13 07:58:58;;;;;;;4.95;3.95;;;22.50;99.90;;;;;;4938262;28;20043;-71
2022/07/13 08:01:24;;;;;;;4.47;3.35;;;22.70;99.90;;;;;;4953407;28;20062;-71
2022/07/13 08:03:49;;;;;;;5.38;4.00;;;22.80;99.90;;;;;;4957537;28;20101;-71
2022/07/13 08:06:16;;;;;;;8.82;5.65;;;22.90;99.90;;;;;;4956102;28;20031;-71
2022/07/13 08:08:42;;;;;;;7.70;4.72;;;22.80;99.90;;;;;;4957600;28;20112;-71
2022/07/13 08:11:10;;;;;;;5.90;4.80;;;23.00;99.90;;;;;;4957091;28;20372;-70
2022/07/13 08:13:36;;;;;;;5.78;3.92;;;22.90;99.90;;;;;;4957231;28;20046;-70
2022/07/13 08:16:03;;;;;;;4.93;3.15;;;23.10;99.90;;;;;;4957256;28;20104;-72
2022/07/13 08:18:29;;;;;;;4.55;3.00;;;23.30;99.90;;;;;;4944224;28;20489;-71
2022/07/13 08:20:55;;;;;;;2.47;1.95;;;23.40;99.90;;;;;;4966778;28;20051;-71
2022/07/13 08:26:05;;;;;;;5.70;3.40;;;23.60;99.90;;;;;;4947974;28;20039;-71
2022/07/13 08:28:31;;;;;;;3.22;2.50;;;23.70;99.90;;;;;;4956887;28;20176;-71
2022/07/13 08:30:57;;;;;;;5.40;3.75;;;23.90;99.90;;;;;;4913452;29;20147;-71
2022/07/13 08:38:34;;;;;;;4.55;2.10;;;23.80;99.90;;;;;;4955785;28;20066;-71
2022/07/13 08:38:53;;;;;;;6.45;3.63;;;24.20;99.90;;;;;;4940151;28;20051;-71
2022/07/13 08:41:19;;;;;;;3.60;2.60;;;24.00;99.90;;;;;;4941375;29;20463;-71
2022/07/13 08:43:45;;;;;;;4.13;2.83;;;24.10;99.90;;;;;;4940310;28;20320;-72
2022/07/13 08:46:11;;;;;;;3.33;2.40;;;24.10;99.90;;;;;;4939088;28;20043;-70
2022/07/13 08:48:38;;;;;;;3.22;2.33;;;24.30;99.90;;;;;;4939703;28;20035;-69
2022/07/13 08:51:05;;;;;;;3.45;2.47;;;24.20;99.90;;;;;;4949771;28;20039;-70
2022/07/13 08:53:31;;;;;;;3.10;2.20;;;24.40;99.90;;;;;;4930849;28;20340;-70
2022/07/13 08:55:57;;;;;;;2.20;1.70;;;24.50;99.90;;;;;;4937256;28;20031;-69
2022/07/13 08:58:23;;;;;;;2.65;1.70;;;24.50;99.90;;;;;;4937838;29;20081;-70
2022/07/13 09:00:49;;;;;;;1.98;1.40;;;24.50;99.90;;;;;;4932670;28;20532;-69
2022/07/13 09:03:15;;;;;;;2.53;1.40;;;24.80;99.90;;;;;;4932062;29;20036;-69
2022/07/13 09:05:42;;;;;;;1.80;1.45;;;24.80;99.90;;;;;;4929669;29;20106;-69
2022/07/13 09:08:09;;;;;;;2.10;1.38;;;24.80;99.90;;;;;;4939999;28;20042;-72
2022/07/13 09:10:53;;;;;;;2.70;1.75;;;25.10;99.90;;;;;;4943854;29;20047;-69
2022/07/13 09:13:41;;;;;;;1.88;1.50;;;25.10;99.90;;;;;;4937563;29;21306;-69
2022/07/13 09:16:15;;;;;;;2.63;1.80;;;25.30;99.90;;;;;;4952682;28;20043;-69
2022/07/13 09:18:46;;;;;;;3.00;1.98;;;25.40;99.90;;;;;;4935077;29;20090;-69
2022/07/13 09:21:12;;;;;;;1.58;1.35;;;25.40;99.40;;;;;;4919804;29;20407;-69
2022/07/13 09:23:38;;;;;;;4.05;2.05;;;25.20;99.20;;;;;;4935369;29;20047;-70
2022/07/13 09:26:04;;;;;;;1.90;1.45;;;24.90;99.70;;;;;;4953636;28;20061;-69
2022/07/13 09:28:42;;;;;;;3.45;1.92;;;25.20;99.90;;;;;;4932331;29;20121;-70
2022/07/13 09:31:08;;;;;;;2.60;1.55;;;25.20;99.90;;;;;;4933482;29;20055;-71
2022/07/13 09:33:38;;;;;;;2.63;1.77;;;25.20;99.90;;;;;;4932326;28;20506;-71
2022/07/13 09:36:11;;;;;;;1.90;1.50;;;25.40;99.80;;;;;;4923045;29;20098;-71
2022/07/13 09:38:45;;;;;;;2.25;1.30;;;25.50;98.00;;;;;;4935119;29;20086;-71
2022/07/13 09:41:14;;;;;;;1.27;1.00;;;25.70;99.40;;;;;;4934718;29;20407;-71
2022/07/13 09:47:02;;;;;;;2.03;1.17;;;25.80;97.20;;;;;;4935207;28;20150;-71
2022/07/13 09:49:34;;;;;;;1.45;1.00;;;25.90;96.40;;;;;;4936059;29;20135;-71
2022/07/13 09:52:02;;;;;;;1.00;0.90;;;25.90;95.40;;;;;;4948255;29;20120;-71
2022/07/13 09:54:29;;;;;;;2.55;1.40;;;25.90;95.10;;;;;;4935245;29;20057;-71
2022/07/13 09:57:03;;;;;;;2.42;1.40;;;25.90;96.50;;;;;;4945162;28;20051;-71
2022/07/13 09:59:29;;;;;;;1.67;1.23;;;26.00;97.00;;;;;;4943099;28;20047;-71
2022/07/13 10:01:55;;;;;;;2.40;1.63;;;25.90;97.70;;;;;;4931232;29;20055;-70
2022/07/13 10:04:24;;;;;;;3.72;1.83;;;25.90;98.90;;;;;;4939203;28;20075;-70
2022/07/13 10:06:50;;;;;;;2.75;1.80;;;25.70;98.60;;;;;;4955038;28;20039;-70
2022/07/13 10:09:22;;;;;;;1.58;1.17;;;25.60;97.80;;;;;;4955526;28;20069;-70
2022/07/13 10:11:48;;;;;;;2.55;1.67;;;25.60;97.30;;;;;;4955481;28;20078;-71
2022/07/13 10:14:17;;;;;;;2.20;1.40;;;25.80;97.50;;;;;;4968197;28;20037;-70
2022/07/13 10:16:44;;;;;;;1.55;1.00;;;25.80;96.50;;;;;;4943770;28;20374;-71
2022/07/13 10:19:11;;;;;;;2.45;1.20;;;25.90;95.70;;;;;;4946951;28;20526;-70
2022/07/13 10:22:01;;;;;;;1.80;1.13;;;25.90;94.80;;;;;;4938517;28;20046;-71
2022/07/13 10:24:29;;;;;;;4.18;1.40;;;26.00;94.60;;;;;;4955209;28;20042;-71
2022/07/13 10:27:25;;;;;;;3.40;1.10;;;25.60;94.90;;;;;;4970943;28;20058;-71
2022/07/13 10:29:55;;;;;;;2.40;1.30;;;25.70;95.10;;;;;;4954576;28;20046;-72
2022/07/13 10:32:26;;;;;;;1.63;0.98;;;25.60;94.70;;;;;;4954359;28;20051;-76
2022/07/13 10:35:00;;;;;;;1.42;1.10;;;25.80;95.70;;;;;;4954929;28;20058;-73
2022/07/13 10:37:26;;;;;;;2.25;1.20;;;25.60;93.90;;;;;;4938232;29;20162;-71
2022/07/13 10:40:14;;;;;;;1.73;1.00;;;25.30;93.90;;;;;;4949044;28;20054;-72
2022/07/13 10:43:03;;;;;;;2.03;1.00;;;25.60;94.00;;;;;;4927923;29;20039;-72
2022/07/13 10:45:42;;;;;;;1.02;0.90;;;25.60;93.60;;;;;;4937054;28;20372;-72
2022/07/13 10:48:11;;;;;;;1.83;1.00;;;25.70;94.10;;;;;;4934246;29;20375;-72
2022/07/13 10:50:48;;;;;;;1.27;1.00;;;25.50;93.30;;;;;;4938949;28;20047;-72
2022/07/13 10:53:17;;;;;;;1.85;1.00;;;26.00;93.80;;;;;;4936404;28;20517;-72
2022/07/13 10:55:50;;;;;;;0.80;0.80;;;26.10;94.20;;;;;;4919177;28;20043;-72
2022/07/13 10:58:31;;;;;;;1.65;1.00;;;26.30;93.50;;;;;;4933214;29;20398;-72
2022/07/13 11:00:59;;;;;;;1.45;0.93;;;26.40;94.10;;;;;;4930703;29;20063;-72
2022/07/13 11:03:43;;;;;;;1.75;1.10;;;26.30;92.50;;;;;;4930036;29;20688;-73
2022/07/13 11:06:17;;;;;;;1.85;1.17;;;26.30;92.50;;;;;;4926642;28;20126;-72
2022/07/13 11:08:43;;;;;;;2.47;1.65;;;26.10;93.10;;;;;;4912241;29;20372;-74
2022/07/13 11:11:13;;;;;;;1.23;1.00;;;25.90;92.90;;;;;;4913010;29;20058;-74
2022/07/13 11:13:39;;;;;;;2.47;1.10;;;26.20;94.60;;;;;;4928031;29;20051;-74
2022/07/13 11:16:07;;;;;;;1.65;1.00;;;26.20;93.50;;;;;;4928630;29;20079;-74
2022/07/13 11:18:38;;;;;;;2.28;0.90;;;26.30;92.60;;;;;;4930156;29;20047;-73
2022/07/13 11:21:18;;;;;;;1.40;1.00;;;26.40;93.50;;;;;;4943940;29;20093;-73
2022/07/13 11:26:48;;;;;;;2.40;1.20;;;26.30;94.00;;;;;;4929551;29;20079;-73
2022/07/13 11:29:24;;;;;;;2.03;1.20;;;26.10;94.10;;;;;;4931213;28;20047;-73
2022/07/13 11:31:57;;;;;;;2.65;1.27;;;25.90;94.10;;;;;;4946133;28;20035;-73
2022/07/13 11:34:24;;;;;;;2.70;0.93;;;25.40;94.80;;;;;;4901874;29;20053;-73
2022/07/13 11:36:50;;;;;;;5.40;1.63;;;25.50;95.30;;;;;;4948503;29;20191;-73
2022/07/13 11:39:33;;;;;;;2.88;1.30;;;25.10;95.80;;;;;;4947350;29;20035;-74
2022/07/13 11:42:00;;;;;;;2.47;1.10;;;24.80;96.80;;;;;;4931289;29;20111;-73
2022/07/13 11:44:27;;;;;;;1.58;1.00;;;25.20;96.40;;;;;;4932970;29;20079;-73
2022/07/13 11:46:54;;;;;;;3.67;1.42;;;25.00;95.70;;;;;;4932305;29;20127;-72
2022/07/13 11:49:21;;;;;;;2.72;1.27;;;24.90;95.80;;;;;;4932829;29;20066;-72
2022/07/13 11:51:47;;;;;;;1.85;1.20;;;25.20;96.10;;;;;;4931351;29;20122;-71
2022/07/13 11:54:15;;;;;;;1.70;1.10;;;25.30;96.80;;;;;;4931998;29;20078;-72
2022/07/13 11:56:51;;;;;;;1.55;1.08;;;25.30;97.30;;;;;;4932246;29;20039;-72
2022/07/13 11:59:40;;;;;;;2.72;1.42;;;25.20;98.40;;;;;;4932608;29;20055;-72
2022/07/13 12:02:08;;;;;;;2.85;1.52;;;25.30;99.90;;;;;;4930274;29;20055;-72
2022/07/13 12:04:45;;;;;;;4.50;1.30;;;25.40;99.90;;;;;;4937280;29;20100;-72
2022/07/13 12:07:20;;;;;;;2.72;1.70;;;25.40;99.90;;;;;;4929228;29;20499;-72
2022/07/13 12:10:05;;;;;;;2.20;1.40;;;24.70;99.90;;;;;;4931342;29;20411;-72
2022/07/13 12:12:40;;;;;;;2.00;1.30;;;24.70;99.90;;;;;;4946615;28;20491;-72
2022/07/13 12:15:07;;;;;;;3.15;1.30;;;24.90;99.90;;;;;;4944637;29;20086;-72
2022/07/13 12:17:44;;;;;;;2.97;1.30;;;25.10;99.90;;;;;;4932305;29;20041;-72
2022/07/13 12:20:17;;;;;;;2.40;1.20;;;24.80;99.90;;;;;;4916407;29;20106;-72
2022/07/13 12:22:57;;;;;;;2.17;1.30;;;25.00;99.90;;;;;;4928518;29;20479;-72
2022/07/13 12:25:31;;;;;;;2.80;1.35;;;24.90;99.90;;;;;;4930524;29;20510;-75
2022/07/13 12:28:01;;;;;;;3.83;1.48;;;25.00;99.90;;;;;;4929591;29;20416;-75
2022/07/13 12:30:28;;;;;;;3.47;1.45;;;24.80;99.90;;;;;;4929927;29;20098;-75
2022/07/13 12:33:05;;;;;;;3.97;1.70;;;24.70;99.90;;;;;;4931936;29;20065;-75
2022/07/13 12:35:38;;;;;;;3.58;1.77;;;24.50;99.90;;;;;;4930636;29;20062;-75
2022/07/13 12:38:12;;;;;;;3.45;1.50;;;24.70;99.90;;;;;;4925411;29;20098;-74
2022/07/13 12:40:42;;;;;;;2.58;1.50;;;24.50;99.90;;;;;;4929246;28;20043;-73
2022/07/13 12:43:22;;;;;;;4.45;2.00;;;24.10;99.90;;;;;;4928202;29;20134;-72
2022/07/13 12:45:53;;;;;;;3.42;1.83;;;24.00;99.90;;;;;;4928655;29;20043;-72
2022/07/13 12:48:22;;;;;;;3.13;1.70;;;23.90;99.90;;;;;;4928621;29;20054;-72
2022/07/13 12:51:08;;;;;;;2.17;1.10;;;24.10;99.90;;;;;;4914777;29;20383;-72
2022/07/13 12:53:54;;;;;;;3.05;1.40;;;24.40;99.90;;;;;;4931236;29;20062;-72
2022/07/13 12:56:25;;;;;;;3.17;1.58;;;24.40;99.90;;;;;;4929071;29;20043;-72
2022/07/13 12:58:53;;;;;;;3.70;1.80;;;24.50;99.90;;;;;;4941489;28;20051;-73
2022/07/13 13:01:27;;;;;;;4.00;1.45;;;24.30;99.90;;;;;;4929533;29;20047;-72
2022/07/13 13:03:53;;;;;;;5.75;2.05;;;24.20;99.90;;;;;;4928209;29;20043;-71
2022/07/13 13:06:19;;;;;;;3.13;1.48;;;24.30;99.90;;;;;;4900511;29;20479;-73
2022/07/13 13:08:44;;;;;;;3.30;1.33;;;24.50;99.90;;;;;;4932115;29;20418;-73
2022/07/13 13:11:10;;;;;;;5.20;2.03;;;24.30;99.90;;;;;;4931666;29;20130;-73
2022/07/13 13:13:36;;;;;;;5.90;1.70;;;24.00;99.90;;;;;;4930194;29;20066;-72
2022/07/13 13:16:02;;;;;;;3.30;1.70;;;23.80;99.90;;;;;;4929590;29;20058;-73